Time;durP1;ratioP1;P1;durP2;ratioP2;P2;SDS_P1;SDS_P2;PMS_P1;PMS_P2;Temp;Humidity;BMP_temperature;BMP_pressure;BME280_temperature;BME280_humidity;BME280_pressure;Samples;Min_cycle;Max_cycle;Signal;HPM_P1;HPM_P2
2021/10/10 00:00:12;;;;;;;23.40;16.20;;;;;;;3.97;100.00;96689.88;1030596;28;20029;-71
2021/10/10 00:00:42;;;;;;;25.75;17.20;;;;;;;4.02;100.00;96694.47;1019875;29;20302;-71
2021/10/10 00:01:13;;;;;;;26.27;16.85;;;;;;;4.06;100.00;96700.06;1022407;29;20075;-71
2021/10/10 00:01:43;;;;;;;32.28;18.00;;;;;;;4.01;100.00;96693.69;1024376;28;20035;-71
2021/10/10 00:02:14;;;;;;;25.15;17.92;;;;;;;4.04;100.00;96696.88;1022645;28;20070;-70
2021/10/10 00:02:44;;;;;;;31.02;17.50;;;;;;;4.04;100.00;96699.47;1023883;28;20536;-72
2021/10/10 00:03:15;;;;;;;29.35;17.50;;;;;;;4.04;100.00;96697.69;1028762;28;20412;-71
2021/10/10 00:03:45;;;;;;;29.08;16.92;;;;;;;4.04;100.00;96697.69;1026579;28;20562;-71
2021/10/10 00:04:15;;;;;;;31.10;17.13;;;;;;;4.05;100.00;96698.47;1029118;28;20023;-71
2021/10/10 00:04:46;;;;;;;30.00;18.40;;;;;;;3.96;100.00;96690.88;1031152;28;20018;-71
2021/10/10 00:05:16;;;;;;;27.20;17.52;;;;;;;4.06;100.00;96700.06;1030657;28;20018;-71
2021/10/10 00:05:47;;;;;;;26.75;17.80;;;;;;;4.04;100.00;96697.69;1030562;28;20022;-72
2021/10/10 00:06:17;;;;;;;28.30;17.17;;;;;;;4.00;100.00;96696.47;1030217;28;20027;-71
2021/10/10 00:06:48;;;;;;;30.63;17.60;;;;;;;4.00;100.00;96697.28;1022663;28;20042;-72
2021/10/10 00:07:18;;;;;;;26.23;18.35;;;;;;;3.99;100.00;96700.88;1026543;28;20430;-72
2021/10/10 00:07:49;;;;;;;27.73;18.30;;;;;;;3.97;100.00;96702.06;1030321;28;20018;-71
2021/10/10 00:08:19;;;;;;;28.13;17.45;;;;;;;3.94;100.00;96699.84;1034527;28;20017;-72
2021/10/10 00:08:50;;;;;;;30.17;18.08;;;;;;;3.93;100.00;96703.47;1026209;28;20019;-71
2021/10/10 00:09:20;;;;;;;26.02;17.63;;;;;;;3.92;100.00;96697.47;1022586;29;20038;-71
2021/10/10 00:09:51;;;;;;;26.77;17.77;;;;;;;3.92;100.00;96700.06;1025284;28;20026;-71
2021/10/10 00:10:21;;;;;;;24.77;17.77;;;;;;;3.89;100.00;96700.47;1026707;28;20023;-72
2021/10/10 00:10:52;;;;;;;28.48;17.70;;;;;;;3.89;100.00;96708.25;1039275;28;20025;-71
2021/10/10 00:11:22;;;;;;;29.65;17.17;;;;;;;3.86;100.00;96700.06;1030622;28;20476;-71
2021/10/10 00:11:53;;;;;;;25.65;17.45;;;;;;;3.89;100.00;96705.66;1022520;28;20389;-71
2021/10/10 00:12:23;;;;;;;34.90;18.98;;;;;;;3.77;100.00;96689.84;1018733;29;20028;-71
2021/10/10 00:12:54;;;;;;;27.77;18.30;;;;;;;3.88;100.00;96711.81;1018662;29;20051;-71
2021/10/10 00:13:24;;;;;;;31.45;18.90;;;;;;;3.88;100.00;96706.63;1024498;28;20031;-71
2021/10/10 00:13:55;;;;;;;28.52;18.25;;;;;;;3.87;100.00;96707.63;1034851;28;20076;-72
2021/10/10 00:14:25;;;;;;;26.65;17.85;;;;;;;3.88;100.00;96706.63;1034433;28;20037;-72
2021/10/10 00:14:56;;;;;;;28.42;18.30;;;;;;;3.87;100.00;96712.81;1035548;28;20346;-72
2021/10/10 00:15:26;;;;;;;27.73;18.80;;;;;;;3.85;100.00;96707.00;1030658;28;20174;-72
2021/10/10 00:15:56;;;;;;;28.35;18.05;;;;;;;3.79;100.00;96705.22;1023020;28;20076;-73
2021/10/10 00:16:27;;;;;;;29.20;17.83;;;;;;;3.83;100.00;96700.44;1022870;28;20470;-71
2021/10/10 00:16:57;;;;;;;33.20;19.77;;;;;;;3.82;100.00;96704.81;1018166;29;20621;-71
2021/10/10 00:17:28;;;;;;;28.83;18.42;;;;;;;3.79;100.00;96702.63;1014397;29;20062;-71
2021/10/10 00:17:58;;;;;;;29.35;18.08;;;;;;;3.71;100.00;96692.41;1018090;29;20028;-71
2021/10/10 00:18:29;;;;;;;29.65;17.67;;;;;;;3.77;100.00;96702.00;1016313;29;20028;-71
2021/10/10 00:18:59;;;;;;;26.80;18.58;;;;;;;3.81;100.00;96705.81;1025069;28;20018;-70
2021/10/10 00:19:30;;;;;;;30.17;18.50;;;;;;;3.82;100.00;96706.59;1030540;28;20058;-71
2021/10/10 00:20:00;;;;;;;27.95;18.88;;;;;;;3.75;100.00;96693.59;1026300;28;20023;-72
2021/10/10 00:20:31;;;;;;;28.85;18.40;;;;;;;3.81;100.00;96705.00;1022412;28;20094;-72
2021/10/10 00:21:01;;;;;;;27.60;18.48;;;;;;;3.80;100.00;96695.63;1022439;29;20123;-71
2021/10/10 00:21:32;;;;;;;34.42;19.38;;;;;;;3.76;100.00;96700.44;1022330;29;20023;-71
2021/10/10 00:22:02;;;;;;;26.85;18.85;;;;;;;3.78;100.00;96704.41;1025827;28;20019;-71
2021/10/10 00:22:33;;;;;;;25.65;18.70;;;;;;;3.76;100.00;96700.44;1034367;28;20273;-71
2021/10/10 00:23:03;;;;;;;29.05;17.92;;;;;;;3.79;100.00;96705.22;1030598;28;20030;-72
2021/10/10 00:23:34;;;;;;;26.35;17.77;;;;;;;3.80;100.00;96701.63;1026512;28;20105;-71
2021/10/10 00:24:04;;;;;;;33.42;17.63;;;;;;;3.77;100.00;96697.63;1022343;29;20082;-71
2021/10/10 00:24:34;;;;;;;27.85;18.08;;;;;;;3.78;100.00;96703.59;1018697;28;20027;-71
2021/10/10 00:25:06;;;;;;;30.25;18.60;;;;;;;3.58;100.00;96666.41;1018280;29;20031;-70
2021/10/10 00:25:36;;;;;;;32.10;17.70;;;;;;;3.76;100.00;96700.44;1018575;29;20227;-71
2021/10/10 00:26:07;;;;;;;29.27;18.00;;;;;;;3.77;100.00;96702.81;1017859;29;20279;-71
2021/10/10 00:26:37;;;;;;;27.27;17.58;;;;;;;3.78;100.00;96704.41;1022326;29;20074;-72
2021/10/10 00:27:08;;;;;;;26.02;18.23;;;;;;;3.80;100.00;96700.84;1021577;28;20069;-72
2021/10/10 00:27:38;;;;;;;26.73;18.77;;;;;;;3.76;100.00;96700.44;1018501;29;20074;-70
2021/10/10 00:28:09;;;;;;;28.85;17.85;;;;;;;3.76;100.00;96700.44;1018184;29;20039;-71
2021/10/10 00:28:39;;;;;;;39.40;18.75;;;;;;;3.76;100.00;96700.44;1012653;29;20089;-72
2021/10/10 00:29:10;;;;;;;26.88;18.42;;;;;;;3.74;100.00;96707.59;1021359;28;20118;-71
2021/10/10 00:29:40;;;;;;;28.25;19.13;;;;;;;3.71;100.00;96707.97;1020321;28;20035;-71
2021/10/10 00:30:11;;;;;;;29.45;19.13;;;;;;;3.68;100.00;96703.19;1026361;28;20464;-72
2021/10/10 00:30:41;;;;;;;28.17;17.95;;;;;;;3.66;100.00;96705.19;1022176;29;20019;-71
2021/10/10 00:31:12;;;;;;;31.88;19.15;;;;;;;3.67;100.00;96702.38;1025525;28;20706;-71
2021/10/10 00:31:42;;;;;;;31.73;19.20;;;;;;;3.63;100.00;96700.38;1028076;28;20030;-71
2021/10/10 00:32:12;;;;;;;31.70;17.85;;;;;;;3.64;100.00;96701.97;1022233;29;20818;-71
2021/10/10 00:32:43;;;;;;;30.05;19.42;;;;;;;3.65;100.00;96700.97;1026141;28;20034;-71
2021/10/10 00:33:13;;;;;;;26.95;18.15;;;;;;;3.64;100.00;96701.97;1034414;28;20559;-72
2021/10/10 00:33:44;;;;;;;29.35;18.83;;;;;;;3.64;100.00;96709.75;1025810;28;20500;-72
2021/10/10 00:34:17;;;;;;;30.20;19.08;;;;;;;3.57;100.00;96690.78;1030736;28;20018;-71
2021/10/10 00:34:47;;;;;;;33.68;20.40;;;;;;;3.56;100.00;96694.38;1026520;28;20037;-72
2021/10/10 00:35:18;;;;;;;28.45;17.58;;;;;;;3.62;100.00;96703.94;1022795;28;20111;-71
2021/10/10 00:35:48;;;;;;;34.50;18.35;;;;;;;3.61;100.00;96705.75;1030719;28;20014;-72
2021/10/10 00:36:19;;;;;;;31.98;19.17;;;;;;;3.64;100.00;96705.38;1030474;28;20091;-71
2021/10/10 00:36:49;;;;;;;26.17;17.77;;;;;;;3.57;100.00;96690.78;1030072;28;20755;-71
2021/10/10 00:37:20;;;;;;;26.45;18.15;;;;;;;3.60;100.00;96703.34;1026002;28;20481;-71
2021/10/10 00:37:50;;;;;;;32.53;18.17;;;;;;;3.61;100.00;96702.34;1024677;28;20097;-71
2021/10/10 00:38:20;;;;;;;31.52;19.42;;;;;;;3.59;100.00;96699.16;1022645;29;20019;-72
2021/10/10 00:38:51;;;;;;;25.80;17.10;;;;;;;3.56;100.00;96699.56;1026139;28;20023;-71
2021/10/10 00:39:21;;;;;;;28.33;19.00;;;;;;;3.60;100.00;96700.75;1022227;28;20053;-71
2021/10/10 00:39:52;;;;;;;35.33;18.42;;;;;;;3.59;100.00;96701.75;1018817;28;20023;-71
2021/10/10 00:40:22;;;;;;;36.92;19.48;;;;;;;3.57;100.00;96703.75;1026586;28;20019;-71
2021/10/10 00:40:53;;;;;;;26.42;18.33;;;;;;;3.57;100.00;96707.13;1018902;28;20019;-70
2021/10/10 00:41:23;;;;;;;32.03;18.27;;;;;;;3.58;100.00;96702.75;1022005;29;20024;-72
2021/10/10 00:41:54;;;;;;;32.85;19.23;;;;;;;3.53;100.00;96704.13;1021893;28;20016;-71
2021/10/10 00:42:24;;;;;;;29.55;17.95;;;;;;;3.50;100.00;96693.34;1027014;28;20019;-70
2021/10/10 00:42:55;;;;;;;27.50;18.20;;;;;;;3.57;100.00;96704.53;1026965;28;20130;-71
2021/10/10 00:43:25;;;;;;;28.15;19.17;;;;;;;3.57;100.00;96706.34;1022867;29;20026;-72
2021/10/10 00:43:55;;;;;;;30.10;18.02;;;;;;;3.58;100.00;96707.94;1024286;28;20015;-71
2021/10/10 00:44:26;;;;;;;23.20;18.23;;;;;;;3.60;100.00;96700.75;1027005;28;20031;-71
2021/10/10 00:44:56;;;;;;;29.02;18.75;;;;;;;3.59;100.00;96704.34;1030857;28;20023;-72
2021/10/10 00:45:27;;;;;;;27.65;17.08;;;;;;;3.61;100.00;96710.13;1031096;28;20014;-71
2021/10/10 00:45:57;;;;;;;31.13;18.70;;;;;;;3.52;100.00;96692.16;1026650;28;20054;-71
2021/10/10 00:46:28;;;;;;;30.85;17.48;;;;;;;3.57;100.00;96698.56;1023101;29;20030;-72
2021/10/10 00:46:58;;;;;;;27.17;19.35;;;;;;;3.56;100.00;96707.34;1023079;29;20015;-71
2021/10/10 00:47:29;;;;;;;28.65;18.50;;;;;;;3.52;100.00;96699.94;1019009;29;20018;-71
2021/10/10 00:48:00;;;;;;;28.10;19.05;;;;;;;3.52;100.00;96699.13;1024243;28;20023;-71
2021/10/10 00:48:30;;;;;;;26.96;18.44;;;;;;;3.50;100.00;96701.13;1023796;28;20031;-72
2021/10/10 00:49:01;;;;;;;26.80;18.77;;;;;;;3.49;100.00;96702.94;1027060;28;20038;-71
2021/10/10 00:49:31;;;;;;;31.00;19.27;;;;;;;3.47;100.00;96691.94;1030104;28;20081;-72
2021/10/10 00:50:02;;;;;;;28.55;18.77;;;;;;;3.44;100.00;96697.50;1031119;28;20030;-71
2021/10/10 00:50:32;;;;;;;27.55;18.95;;;;;;;3.42;100.00;96694.31;1034862;28;20053;-71
2021/10/10 00:51:03;;;;;;;27.15;17.55;;;;;;;3.43;100.00;96695.13;1026913;28;20022;-71
2021/10/10 00:51:35;;;;;;;27.38;18.50;;;;;;;3.41;100.00;96692.69;1026963;28;20030;-72
2021/10/10 00:52:06;;;;;;;26.26;18.22;;;;;;;3.39;100.00;96694.69;1027211;28;20038;-72
2021/10/10 00:52:40;;;;;;;29.77;19.38;;;;;;;3.38;100.00;96700.06;1026987;28;20395;-72
2021/10/10 00:53:11;;;;;;;29.98;18.68;;;;;;;3.36;100.00;96694.28;1019029;29;20063;-72
2021/10/10 00:53:42;;;;;;;23.76;17.74;;;;;;;3.29;100.00;96689.88;1027125;28;20037;-72
2021/10/10 00:54:15;;;;;;;28.50;18.27;;;;;;;3.30;100.00;96701.03;1018900;29;20074;-71
2021/10/10 00:54:46;;;;;;;29.52;19.06;;;;;;;3.18;100.00;96676.63;1018892;29;20039;-71
2021/10/10 00:55:20;;;;;;;27.50;18.02;;;;;;;3.18;100.00;96684.41;1022968;29;20039;-71
2021/10/10 00:55:52;;;;;;;29.54;19.50;;;;;;;3.24;100.00;96696.63;1019708;29;20057;-71
2021/10/10 00:56:23;;;;;;;30.54;18.40;;;;;;;3.23;100.00;96695.03;1020923;28;20037;-70
2021/10/10 00:56:54;;;;;;;32.70;18.63;;;;;;;3.15;100.00;96679.59;1026800;28;20058;-71
2021/10/10 00:57:25;;;;;;;29.20;18.04;;;;;;;3.22;100.00;96693.41;1023071;29;20031;-71
2021/10/10 00:57:55;;;;;;;30.95;19.00;;;;;;;3.21;100.00;96692.59;1022246;29;20019;-71
2021/10/10 00:58:26;;;;;;;27.63;18.67;;;;;;;3.22;100.00;96698.59;1026511;28;20022;-71
2021/10/10 00:58:57;;;;;;;32.25;19.02;;;;;;;3.13;100.00;96679.00;1027101;28;20030;-71
2021/10/10 00:59:28;;;;;;;32.28;19.74;;;;;;;3.16;100.00;96681.22;1026855;28;20031;-71
2021/10/10 00:59:58;;;;;;;35.72;19.98;;;;;;;3.22;100.00;96696.00;1022911;29;20035;-72
2021/10/10 01:00:29;;;;;;;28.67;19.55;;;;;;;3.15;100.00;96677.00;1023028;29;20169;-71
2021/10/10 01:00:59;;;;;;;29.35;19.05;;;;;;;3.16;100.00;96683.81;1018634;29;20062;-71
2021/10/10 01:01:30;;;;;;;30.75;20.00;;;;;;;3.21;100.00;96689.22;1026833;28;20696;-71
2021/10/10 01:02:00;;;;;;;28.77;19.13;;;;;;;3.13;100.00;96679.81;1027871;28;20065;-71
2021/10/10 01:02:32;;;;;;;32.50;19.48;;;;;;;3.11;100.00;96676.59;1022838;28;20548;-71
2021/10/10 01:03:02;;;;;;;29.70;19.26;;;;;;;3.17;100.00;96690.59;1022998;29;20039;-71
2021/10/10 01:03:33;;;;;;;27.33;17.92;;;;;;;3.14;100.00;96680.59;1015895;29;20494;-71
2021/10/10 01:04:03;;;;;;;29.00;19.33;;;;;;;3.21;100.00;96691.81;1018847;29;20035;-71
2021/10/10 01:04:34;;;;;;;31.45;20.60;;;;;;;3.21;100.00;96687.41;1024259;28;20105;-71
2021/10/10 01:05:04;;;;;;;32.15;19.48;;;;;;;3.15;100.00;96679.59;1026761;28;20030;-71
2021/10/10 01:05:35;;;;;;;28.48;19.25;;;;;;;3.19;100.00;96689.41;1023328;28;20061;-71
2021/10/10 01:06:05;;;;;;;25.17;18.08;;;;;;;3.18;100.00;96692.19;1030917;28;20081;-71
2021/10/10 01:06:36;;;;;;;25.50;18.25;;;;;;;3.15;100.00;96684.78;1034790;28;20026;-72
2021/10/10 01:07:06;;;;;;;31.88;18.73;;;;;;;3.17;100.00;96691.41;1022970;28;20027;-71
2021/10/10 01:07:37;;;;;;;28.00;19.23;;;;;;;3.12;100.00;96687.75;1022670;28;20027;-70
2021/10/10 01:08:07;;;;;;;29.88;18.38;;;;;;;3.14;100.00;96690.97;1026069;28;20038;-71
2021/10/10 01:08:38;;;;;;;28.07;19.17;;;;;;;3.14;100.00;96688.38;1030779;28;20033;-72
2021/10/10 01:09:12;;;;;;;33.63;20.70;;;;;;;3.10;100.00;96682.00;1026864;28;20055;-71
2021/10/10 01:09:43;;;;;;;30.34;18.60;;;;;;;3.10;100.00;96684.59;1026707;28;20038;-71
2021/10/10 01:10:14;;;;;;;29.90;19.38;;;;;;;3.08;100.00;96682.16;1019355;29;20040;-72
2021/10/10 01:10:45;;;;;;;30.38;19.36;;;;;;;3.04;100.00;96680.94;1028323;28;20383;-72
2021/10/10 01:11:15;;;;;;;31.88;20.02;;;;;;;3.03;100.00;96676.78;1019392;29;20572;-71
2021/10/10 01:11:46;;;;;;;33.15;20.42;;;;;;;3.02;100.00;96685.53;1019190;29;20039;-71
2021/10/10 01:12:16;;;;;;;27.30;20.02;;;;;;;3.02;100.00;96685.53;1022827;29;20396;-71
2021/10/10 01:12:47;;;;;;;30.13;18.90;;;;;;;2.98;100.00;96685.09;1018944;29;20775;-71
2021/10/10 01:13:17;;;;;;;29.63;17.85;;;;;;;2.92;100.00;96675.53;1022826;29;20061;-71
2021/10/10 01:13:48;;;;;;;29.83;19.67;;;;;;;2.92;100.00;96670.34;1027047;28;20015;-71
2021/10/10 01:14:18;;;;;;;33.20;19.50;;;;;;;3.01;100.00;96679.53;1027231;28;20103;-72
2021/10/10 01:14:49;;;;;;;31.33;20.23;;;;;;;3.00;100.00;96682.34;1022947;29;20028;-72
2021/10/10 01:15:19;;;;;;;29.55;19.45;;;;;;;2.92;100.00;96670.34;1019452;28;20375;-72
2021/10/10 01:15:50;;;;;;;28.67;19.85;;;;;;;2.94;100.00;96670.94;1022991;29;20015;-72
2021/10/10 01:16:20;;;;;;;30.58;20.48;;;;;;;3.00;100.00;96677.16;1034989;28;20014;-71
2021/10/10 01:16:51;;;;;;;29.10;18.98;;;;;;;2.99;100.00;96680.75;1026913;28;20019;-71
2021/10/10 01:17:24;;;;;;;29.45;19.13;;;;;;;2.91;100.00;96668.72;1030973;28;20057;-71
2021/10/10 01:17:55;;;;;;;29.74;19.62;;;;;;;2.97;100.00;96680.91;1025976;28;20031;-73
2021/10/10 01:18:25;;;;;;;34.83;19.20;;;;;;;2.97;100.00;96675.72;1027124;28;20447;-71
2021/10/10 01:18:56;;;;;;;31.02;20.08;;;;;;;2.97;100.00;96680.91;1026757;28;20658;-72
2021/10/10 01:19:31;;;;;;;27.12;18.48;;;;;;;2.92;100.00;96675.53;1023407;28;20075;-71
2021/10/10 01:20:01;;;;;;;29.60;19.34;;;;;;;2.96;100.00;96678.53;1018906;29;20446;-71
2021/10/10 01:20:45;;;;;;;31.48;19.88;;;;;;;2.86;100.00;96671.09;1026724;28;20372;-71
2021/10/10 01:21:17;;;;;;;35.50;20.60;;;;;;;2.91;100.00;96676.50;1026711;28;20039;-71
2021/10/10 01:21:47;;;;;;;27.46;19.26;;;;;;;2.90;100.00;96672.31;1026688;28;20031;-72
2021/10/10 01:22:18;;;;;;;29.20;20.60;;;;;;;2.85;100.00;96674.69;1025056;28;20023;-71
2021/10/10 01:22:48;;;;;;;28.27;19.48;;;;;;;2.78;100.00;96666.03;1031380;28;20033;-72
2021/10/10 01:23:19;;;;;;;32.13;20.58;;;;;;;2.80;100.00;96664.06;1030879;28;20089;-72
2021/10/10 01:23:49;;;;;;;31.60;20.10;;;;;;;2.87;100.00;96669.28;1026580;28;20019;-71
2021/10/10 01:24:20;;;;;;;30.67;21.27;;;;;;;2.84;100.00;96678.25;1022909;29;20467;-71
2021/10/10 01:24:50;;;;;;;30.67;20.10;;;;;;;2.84;100.00;96671.25;1022941;28;20356;-72
2021/10/10 01:25:21;;;;;;;31.50;19.67;;;;;;;2.84;100.00;96680.84;1022733;29;20065;-72
2021/10/10 01:25:52;;;;;;;28.77;18.95;;;;;;;2.73;100.00;96665.81;1022890;28;20020;-72
2021/10/10 01:26:22;;;;;;;32.72;20.20;;;;;;;2.80;100.00;96674.44;1022891;29;20024;-71
2021/10/10 01:26:53;;;;;;;38.38;20.17;;;;;;;2.79;100.00;96673.63;1022890;28;20395;-71
2021/10/10 01:27:26;;;;;;;29.45;20.67;;;;;;;2.78;100.00;96668.63;1022751;29;20038;-72
2021/10/10 01:27:59;;;;;;;28.72;19.72;;;;;;;2.76;100.00;96679.19;1027037;28;20471;-71
2021/10/10 01:28:29;;;;;;;35.83;21.48;;;;;;;2.71;100.00;96665.19;1027382;28;20026;-72
2021/10/10 01:29:00;;;;;;;45.38;21.05;;;;;;;2.77;100.00;96675.63;1026806;28;20038;-71
2021/10/10 01:29:30;;;;;;;33.35;21.85;;;;;;;2.76;100.00;96668.84;1027270;28;20070;-72
2021/10/10 01:30:01;;;;;;;35.63;20.00;;;;;;;2.71;100.00;96660.03;1030879;28;20069;-71
2021/10/10 01:30:32;;;;;;;31.23;19.50;;;;;;;2.78;100.00;96671.22;1031091;28;20026;-72
2021/10/10 01:31:02;;;;;;;34.92;21.77;;;;;;;2.77;100.00;96670.44;1034939;28;20057;-71
2021/10/10 01:31:33;;;;;;;36.40;20.10;;;;;;;2.76;100.00;96665.44;1026711;28;20081;-71
2021/10/10 01:32:03;;;;;;;34.08;21.50;;;;;;;2.79;100.00;96673.63;1022681;28;20038;-71
2021/10/10 01:32:34;;;;;;;29.58;19.90;;;;;;;2.72;100.00;96661.66;1022389;29;20066;-71
2021/10/10 01:33:08;;;;;;;33.10;19.88;;;;;;;2.72;100.00;96662.44;1023027;28;20019;-71
2021/10/10 01:33:38;;;;;;;30.20;19.88;;;;;;;2.80;100.00;96669.25;1027121;28;20035;-71
2021/10/10 01:34:09;;;;;;;31.27;20.63;;;;;;;2.74;100.00;96659.66;1026688;28;20022;-71
2021/10/10 01:34:46;;;;;;;31.33;20.85;;;;;;;2.77;100.00;96669.63;1015107;29;20114;-71
2021/10/10 01:35:19;;;;;;;30.48;20.58;;;;;;;2.77;100.00;96673.03;1015000;29;20048;-72
2021/10/10 01:35:50;;;;;;;31.12;19.78;;;;;;;2.74;100.00;96675.19;1017715;29;20040;-71
2021/10/10 01:36:20;;;;;;;30.63;19.98;;;;;;;2.77;100.00;96680.00;1022674;28;20374;-71
2021/10/10 01:36:51;;;;;;;32.35;20.42;;;;;;;2.74;100.00;96673.41;1030786;28;20399;-71
2021/10/10 01:37:21;;;;;;;33.33;21.08;;;;;;;2.70;100.00;96659.22;1023067;29;20031;-71
2021/10/10 01:37:54;;;;;;;34.06;20.20;;;;;;;2.75;100.00;96669.00;1021823;29;20024;-71
2021/10/10 01:38:25;;;;;;;31.70;19.90;;;;;;;2.76;100.00;96673.22;1023353;28;20039;-71
2021/10/10 01:38:55;;;;;;;31.48;20.63;;;;;;;2.76;100.00;96676.63;1022590;29;20114;-71
2021/10/10 01:39:28;;;;;;;31.98;20.00;;;;;;;2.72;100.00;96666.81;1019242;29;20028;-71
2021/10/10 01:40:01;;;;;;;32.64;20.84;;;;;;;2.85;100.00;96674.69;1022708;28;20152;-72
2021/10/10 01:40:33;;;;;;;29.28;20.52;;;;;;;2.80;100.00;96658.88;1020121;28;20588;-72
2021/10/10 01:41:03;;;;;;;30.46;20.20;;;;;;;2.89;100.00;96675.91;1030817;28;20034;-72
2021/10/10 01:41:36;;;;;;;29.08;19.95;;;;;;;2.90;100.00;96674.09;1034361;28;20380;-71
2021/10/10 01:42:07;;;;;;;33.04;20.72;;;;;;;2.93;100.00;96677.13;1034541;28;20026;-72
2021/10/10 01:42:37;;;;;;;34.75;21.65;;;;;;;2.93;100.00;96674.53;1031213;28;20081;-71
2021/10/10 01:43:08;;;;;;;32.97;18.77;;;;;;;2.91;100.00;96679.09;1034874;28;20025;-72
2021/10/10 01:43:38;;;;;;;33.33;20.90;;;;;;;2.90;100.00;96677.50;1030550;28;20034;-71
2021/10/10 01:44:17;;;;;;;28.38;19.48;;;;;;;2.93;100.00;96679.69;1025891;28;20133;-72
2021/10/10 01:44:48;;;;;;;32.80;20.06;;;;;;;2.86;100.00;96671.09;1023407;28;20667;-71
2021/10/10 01:45:21;;;;;;;31.48;19.65;;;;;;;2.92;100.00;96674.69;1028812;28;20033;-71
2021/10/10 01:45:52;;;;;;;33.60;19.94;;;;;;;2.92;100.00;96672.94;1027805;28;20524;-71
2021/10/10 01:46:22;;;;;;;30.60;19.90;;;;;;;2.92;100.00;96678.13;1026444;28;20022;-71
2021/10/10 01:46:53;;;;;;;30.23;20.75;;;;;;;2.92;100.00;96674.69;1022676;29;20046;-71
2021/10/10 01:47:23;;;;;;;32.70;20.50;;;;;;;2.88;100.00;96674.28;1014686;29;20489;-71
2021/10/10 01:47:53;;;;;;;36.90;20.95;;;;;;;2.88;100.00;96679.47;1017426;29;20577;-71
2021/10/10 01:48:24;;;;;;;32.25;21.13;;;;;;;2.88;100.00;96676.88;1018186;29;20406;-70
2021/10/10 01:48:54;;;;;;;29.13;20.45;;;;;;;2.89;100.00;96678.50;1018457;29;20058;-71
2021/10/10 01:49:25;;;;;;;34.78;20.90;;;;;;;2.87;100.00;96680.47;1018815;29;20027;-71
2021/10/10 01:49:55;;;;;;;35.63;21.00;;;;;;;2.86;100.00;96678.88;1018602;29;20055;-71
2021/10/10 01:50:26;;;;;;;32.47;19.80;;;;;;;2.84;100.00;96673.06;1022330;29;20137;-71
2021/10/10 01:50:57;;;;;;;28.63;20.02;;;;;;;2.84;100.00;96676.44;1018885;29;20047;-72
2021/10/10 01:51:28;;;;;;;33.64;20.64;;;;;;;2.83;100.00;96681.84;1022544;28;20020;-71
2021/10/10 01:51:58;;;;;;;35.13;21.30;;;;;;;2.82;100.00;96673.25;1022571;29;20015;-72
2021/10/10 01:52:28;;;;;;;29.77;20.90;;;;;;;2.80;100.00;96670.06;1022769;28;20026;-71
2021/10/10 01:52:59;;;;;;;32.25;20.77;;;;;;;2.70;100.00;96661.81;1026633;28;20033;-72
2021/10/10 01:53:30;;;;;;;29.76;20.34;;;;;;;2.76;100.00;96674.03;1018882;29;20778;-71
2021/10/10 01:54:00;;;;;;;34.40;21.30;;;;;;;2.77;100.00;96670.44;1022684;29;20074;-71
2021/10/10 01:54:34;;;;;;;35.38;21.83;;;;;;;2.76;100.00;96675.81;1018523;29;20020;-71
2021/10/10 01:55:04;;;;;;;31.72;20.74;;;;;;;2.74;100.00;96668.22;1019673;28;20016;-71
2021/10/10 01:55:37;;;;;;;31.13;19.98;;;;;;;2.75;100.00;96667.25;1022599;29;20038;-71
2021/10/10 01:56:08;;;;;;;29.98;21.50;;;;;;;2.71;100.00;96667.78;1019402;29;20460;-71
2021/10/10 01:56:41;;;;;;;36.08;21.05;;;;;;;2.71;100.00;96671.19;1021270;28;20055;-71
2021/10/10 01:57:11;;;;;;;30.06;21.38;;;;;;;2.71;100.00;96670.38;1019304;29;20516;-71
2021/10/10 01:57:42;;;;;;;31.25;21.80;;;;;;;2.70;100.00;96672.19;1022119;29;20023;-70
2021/10/10 01:58:12;;;;;;;33.95;20.17;;;;;;;2.66;100.00;96662.41;1022426;28;20034;-70
2021/10/10 01:58:43;;;;;;;34.40;21.42;;;;;;;2.71;100.00;96665.19;1021456;28;20465;-68
2021/10/10 01:59:13;;;;;;;32.47;21.25;;;;;;;2.70;100.00;96668.78;1030772;28;20400;-71
2021/10/10 01:59:44;;;;;;;33.92;20.92;;;;;;;2.68;100.00;96666.38;1026443;28;20038;-72
2021/10/10 02:00:14;;;;;;;29.48;21.40;;;;;;;2.68;100.00;96666.38;1027054;28;20675;-71
2021/10/10 02:00:45;;;;;;;33.35;21.15;;;;;;;2.69;100.00;96656.84;1026232;28;20686;-72
2021/10/10 02:01:15;;;;;;;32.47;21.65;;;;;;;2.73;100.00;96665.81;1026450;28;20043;-72
2021/10/10 02:01:46;;;;;;;35.22;21.13;;;;;;;2.70;100.00;96658.44;1029579;28;20026;-71
2021/10/10 02:02:16;;;;;;;30.85;21.58;;;;;;;2.73;100.00;96663.25;1026450;28;20019;-71
2021/10/10 02:02:47;;;;;;;32.47;20.33;;;;;;;2.68;100.00;96657.81;1030036;28;20031;-71
2021/10/10 02:03:17;;;;;;;34.72;21.20;;;;;;;2.69;100.00;96659.44;1026637;28;20082;-71
2021/10/10 02:03:48;;;;;;;36.28;22.40;;;;;;;2.70;100.00;96653.25;1026424;28;20026;-71
2021/10/10 02:04:18;;;;;;;32.65;21.98;;;;;;;2.67;100.00;96653.63;1026714;28;20023;-71
2021/10/10 02:04:48;;;;;;;27.25;20.38;;;;;;;2.67;100.00;96659.59;1026307;28;20042;-72
2021/10/10 02:05:19;;;;;;;30.83;21.83;;;;;;;2.65;100.00;96653.00;1018626;29;20480;-71
2021/10/10 02:05:50;;;;;;;35.88;22.90;;;;;;;2.66;100.00;96659.81;1014831;29;20036;-71
2021/10/10 02:06:20;;;;;;;40.05;22.48;;;;;;;2.66;100.00;96657.22;1018736;29;20020;-72
2021/10/10 02:06:51;;;;;;;29.38;21.40;;;;;;;2.64;100.00;96654.78;1022518;28;20024;-71
2021/10/10 02:07:21;;;;;;;32.95;22.17;;;;;;;2.55;100.00;96646.38;1030543;28;20022;-71
2021/10/10 02:07:52;;;;;;;34.25;21.40;;;;;;;2.62;100.00;96661.19;1028320;28;20027;-71
2021/10/10 02:08:23;;;;;;;32.32;21.46;;;;;;;2.57;100.00;96654.75;1030502;28;20045;-72
2021/10/10 02:08:53;;;;;;;38.72;21.75;;;;;;;2.60;100.00;96656.97;1026403;28;20404;-71
2021/10/10 02:09:24;;;;;;;35.60;22.35;;;;;;;2.58;100.00;96658.97;1026602;28;20041;-71
2021/10/10 02:09:57;;;;;;;31.30;21.30;;;;;;;2.59;100.00;96655.38;1022691;28;20019;-71
2021/10/10 02:10:27;;;;;;;34.66;22.36;;;;;;;2.54;100.00;96647.34;1018941;29;20023;-71
2021/10/10 02:10:58;;;;;;;33.33;21.95;;;;;;;2.51;100.00;96650.31;1021286;29;20019;-71
2021/10/10 02:11:28;;;;;;;37.55;22.65;;;;;;;2.53;100.00;96652.75;1017393;29;20079;-72
2021/10/10 02:11:59;;;;;;;38.10;22.73;;;;;;;2.48;100.00;96644.72;1018635;29;20718;-69
2021/10/10 02:12:29;;;;;;;28.95;20.77;;;;;;;2.50;100.00;96647.94;1014530;29;20028;-72
2021/10/10 02:12:59;;;;;;;36.15;21.90;;;;;;;2.53;100.00;96652.75;1018742;29;20024;-71
2021/10/10 02:13:30;;;;;;;34.85;21.92;;;;;;;2.54;100.00;96657.72;1015507;29;20028;-72
2021/10/10 02:14:00;;;;;;;35.47;23.10;;;;;;;2.51;100.00;96652.91;1018644;29;20031;-71
2021/10/10 02:14:31;;;;;;;32.38;21.92;;;;;;;2.49;100.00;96647.13;1018595;29;20362;-71
2021/10/10 02:15:03;;;;;;;31.60;21.25;;;;;;;2.51;100.00;96655.50;1022205;29;20028;-71
2021/10/10 02:15:33;;;;;;;39.50;22.38;;;;;;;2.52;100.00;96653.75;1018884;29;20028;-71
2021/10/10 02:16:03;;;;;;;34.85;21.20;;;;;;;2.52;100.00;96657.13;1026472;28;20022;-71
2021/10/10 02:16:34;;;;;;;35.13;22.90;;;;;;;2.51;100.00;96655.50;1022806;28;20019;-71
2021/10/10 02:17:04;;;;;;;36.83;22.52;;;;;;;2.49;100.00;96648.94;1022632;28;20016;-71
2021/10/10 02:17:35;;;;;;;31.38;21.30;;;;;;;2.50;100.00;96659.09;1026587;28;20078;-71
2021/10/10 02:18:08;;;;;;;36.15;21.75;;;;;;;2.49;100.00;96644.56;1017836;29;20071;-71
2021/10/10 02:18:41;;;;;;;43.22;22.42;;;;;;;2.47;100.00;96637.94;1018527;29;20117;-71
2021/10/10 02:19:12;;;;;;;31.35;21.92;;;;;;;2.48;100.00;96649.91;1018223;29;20390;-71
2021/10/10 02:19:43;;;;;;;35.42;23.13;;;;;;;2.46;100.00;96646.72;1018589;29;20020;-72
2021/10/10 02:20:13;;;;;;;38.67;24.05;;;;;;;2.50;100.00;96653.13;1015000;29;20016;-72
2021/10/10 02:20:43;;;;;;;35.70;22.00;;;;;;;2.50;100.00;96648.72;1018698;28;20024;-71
2021/10/10 02:21:16;;;;;;;33.67;21.88;;;;;;;2.46;100.00;96644.13;1022512;29;20521;-73
2021/10/10 02:21:47;;;;;;;33.36;23.00;;;;;;;2.48;100.00;96653.31;1026340;28;20602;-71